createdAt,value
2022-09-23T00:02:07.518Z,4.15
2022-09-23T00:07:10.558Z,4.19
2022-09-23T00:12:13.355Z,4.29
2022-09-23T00:17:16.261Z,4.37
2022-09-23T00:22:19.162Z,4.44
2022-09-23T00:27:22.066Z,4.55
2022-09-23T00:32:25.116Z,4.62
2022-09-23T00:37:28.948Z,4.65
2022-09-23T00:42:32.008Z,4.69
2022-09-23T00:47:54.982Z,4.72
2022-09-23T00:53:01.336Z,4.70
2022-09-23T00:58:08.106Z,4.74
2022-09-23T01:03:12.128Z,4.91
2022-09-23T01:08:15.960Z,5.16
2022-09-23T01:13:27.013Z,5.36
2022-09-23T01:18:57.430Z,5.48
2022-09-23T01:24:18.593Z,5.65
2022-09-23T01:30:03.445Z,5.77
2022-09-23T01:35:15.403Z,5.84
2022-09-23T01:40:42.868Z,5.89
2022-09-23T01:45:48.877Z,5.92
2022-09-23T01:50:57.758Z,5.94
2022-09-23T01:56:05.515Z,5.94
2022-09-23T02:01:10.215Z,5.94
2022-09-23T02:06:23.099Z,5.94
2022-09-23T02:11:26.991Z,5.94
2022-09-23T02:16:51.966Z,5.89
2022-09-23T02:22:09.245Z,5.84
2022-09-23T02:27:31.552Z,5.84
2022-09-23T02:33:07.221Z,5.81
2022-09-23T02:38:31.735Z,5.78
2022-09-23T02:43:45.389Z,5.73
2022-09-23T02:48:56.995Z,5.68
2022-09-23T02:54:00.187Z,5.66
2022-09-23T02:59:04.301Z,5.62
2022-09-23T03:04:21.688Z,5.55
2022-09-23T03:09:33.802Z,5.47
2022-09-23T03:14:51.040Z,5.37
2022-09-23T03:19:53.843Z,5.31
2022-09-23T03:25:03.813Z,5.24
2022-09-23T03:30:08.464Z,5.22
2022-09-23T03:40:41.999Z,5.22
2022-09-23T03:45:46.849Z,5.22
2022-09-23T03:50:49.873Z,5.23
2022-09-23T03:55:52.676Z,5.23
2022-09-23T04:00:55.704Z,5.30
2022-09-23T04:05:58.595Z,5.32
2022-09-23T04:11:02.458Z,5.18
2022-09-23T04:16:05.989Z,5.07
2022-09-23T04:21:09.141Z,4.99
2022-09-23T04:26:12.862Z,5.00
2022-09-23T04:31:16.140Z,5.06
2022-09-23T04:36:19.590Z,5.12
2022-09-23T04:41:22.495Z,5.21
2022-09-23T04:46:25.568Z,5.28
2022-09-23T04:51:29.026Z,5.53
2022-09-23T04:56:32.948Z,6.66
2022-09-23T05:01:36.672Z,8.23
2022-09-23T05:06:40.188Z,9.48
2022-09-23T05:11:44.029Z,9.25
2022-09-23T05:16:46.917Z,8.76
2022-09-23T05:21:49.822Z,8.34
2022-09-23T05:26:54.394Z,7.92
2022-09-23T05:31:57.336Z,7.56
2022-09-23T05:37:03.704Z,7.34
2022-09-23T05:42:07.116Z,7.26
2022-09-23T05:47:10.029Z,7.23
2022-09-23T05:52:13.002Z,7.29
2022-09-23T05:57:16.311Z,7.59
2022-09-23T06:02:19.239Z,8.16
2022-09-23T06:07:22.311Z,8.36
2022-09-23T06:12:25.311Z,9.07
2022-09-23T06:17:28.119Z,10.17
2022-09-23T06:22:31.105Z,10.81
2022-09-23T06:27:34.023Z,11.12
2022-09-23T06:32:37.031Z,12.69
2022-09-23T06:37:43.210Z,13.26
2022-09-23T06:42:49.033Z,12.88
2022-09-23T06:48:06.331Z,12.83
2022-09-23T06:53:09.347Z,12.97
2022-09-23T06:58:12.444Z,13.86
2022-09-23T07:03:15.341Z,14.45
2022-09-23T07:08:18.760Z,15.54
2022-09-23T07:13:21.831Z,16.66
2022-09-23T07:18:26.205Z,17.36
2022-09-23T07:23:29.210Z,17.22
2022-09-23T07:28:32.629Z,17.02
2022-09-23T07:33:42.931Z,17.48
2022-09-23T07:38:47.456Z,18.22
2022-09-23T07:43:55.677Z,18.30
2022-09-23T07:48:59.389Z,18.02
2022-09-23T07:54:02.410Z,17.54
2022-09-23T07:59:09.005Z,16.91
2022-09-23T08:04:14.049Z,16.35
2022-09-23T08:09:22.148Z,17.22
2022-09-23T08:14:25.391Z,18.48
2022-09-23T08:19:28.291Z,18.78
2022-09-23T08:24:32.421Z,18.07
2022-09-23T08:29:35.222Z,16.89
2022-09-23T08:34:38.024Z,15.92
2022-09-23T08:39:40.826Z,15.23
2022-09-23T08:44:49.575Z,14.64
2022-09-23T08:50:08.406Z,14.31
2022-09-23T08:55:15.955Z,14.06
2022-09-23T09:00:23.639Z,13.92
2022-09-23T09:05:28.625Z,13.71
2022-09-23T09:10:41.878Z,13.63
2022-09-23T09:15:56.384Z,13.68
2022-09-23T09:21:16.096Z,13.78
2022-09-23T09:26:28.458Z,13.78
2022-09-23T09:31:38.033Z,13.99
2022-09-23T09:37:06.731Z,14.24
2022-09-23T09:42:21.028Z,14.36
2022-09-23T09:47:46.718Z,14.22
2022-09-23T09:52:49.704Z,14.19
2022-09-23T09:58:02.013Z,14.06
2022-09-23T10:03:18.349Z,14.11
2022-09-23T10:08:37.321Z,14.26
2022-09-23T10:13:40.236Z,14.61
2022-09-23T10:18:46.199Z,15.00
2022-09-23T10:23:52.746Z,15.43
2022-09-23T10:28:55.818Z,15.83
2022-09-23T10:34:28.086Z,16.39
2022-09-23T10:39:49.942Z,16.50
2022-09-23T10:45:26.232Z,16.00
2022-09-23T10:50:46.238Z,15.49
2022-09-23T10:56:06.562Z,15.07
2022-09-23T11:01:13.619Z,14.95
2022-09-23T11:06:35.612Z,15.00
2022-09-23T11:11:47.326Z,15.26
2022-09-23T11:17:02.242Z,15.41
2022-09-23T11:22:16.076Z,15.51
2022-09-23T11:27:27.786Z,15.82
2022-09-23T11:32:44.824Z,16.19
2022-09-23T11:37:52.847Z,16.23
2022-09-23T11:43:26.063Z,15.93
2022-09-23T11:48:42.281Z,15.37
2022-09-23T11:53:57.886Z,14.79
2022-09-23T11:59:06.660Z,14.24
2022-09-23T12:04:23.446Z,13.84
2022-09-23T12:15:19.647Z,13.19
2022-09-23T12:20:42.527Z,12.97
2022-09-23T12:25:57.306Z,12.80
2022-09-23T12:31:04.025Z,12.71
2022-09-23T12:36:12.352Z,12.70
2022-09-23T12:41:27.837Z,12.83
2022-09-23T12:46:30.741Z,13.05
2022-09-23T12:51:37.423Z,13.18
2022-09-23T12:56:40.228Z,13.24
2022-09-23T13:01:44.567Z,13.30
2022-09-23T13:07:09.563Z,13.40
2022-09-23T13:12:40.451Z,13.56
2022-09-23T13:17:43.350Z,13.68
2022-09-23T13:22:49.027Z,13.77
2022-09-23T13:27:55.508Z,13.87
2022-09-23T13:33:24.632Z,14.04
2022-09-23T13:38:32.253Z,14.22
2022-09-23T13:43:41.342Z,14.32
2022-09-23T13:48:46.863Z,14.57
2022-09-23T13:53:55.367Z,14.66
2022-09-23T13:59:26.372Z,14.70
2022-09-23T14:04:29.268Z,14.59
2022-09-23T14:09:35.447Z,14.50
2022-09-23T14:14:41.083Z,14.50
2022-09-23T14:19:44.512Z,14.53
2022-09-23T14:24:49.548Z,14.51
2022-09-23T14:29:54.040Z,14.47
2022-09-23T14:34:59.602Z,14.47
2022-09-23T14:40:04.149Z,14.41
2022-09-23T14:45:10.116Z,14.32
2022-09-23T14:50:36.997Z,14.22
2022-09-23T14:55:41.735Z,13.99
2022-09-23T15:00:55.918Z,13.73
2022-09-23T15:06:08.750Z,13.46
2022-09-23T15:11:12.359Z,13.28
2022-09-23T15:16:26.663Z,13.15
2022-09-23T15:21:42.350Z,13.11
2022-09-23T15:26:48.912Z,13.13
2022-09-23T15:31:52.075Z,13.16
2022-09-23T15:36:55.148Z,13.17
2022-09-23T15:41:58.870Z,13.13
2022-09-23T15:47:02.391Z,13.09
2022-09-23T15:52:07.981Z,13.02
2022-09-23T15:57:11.376Z,12.94
2022-09-23T16:02:22.667Z,12.85
2022-09-23T16:07:28.453Z,12.79
2022-09-23T16:12:31.449Z,12.73
2022-09-23T16:17:37.780Z,12.64
2022-09-23T16:22:40.740Z,12.51
2022-09-23T16:27:43.645Z,12.35
2022-09-23T16:32:46.548Z,12.19
2022-09-23T16:37:51.186Z,12.06
2022-09-23T16:42:56.040Z,11.98
2022-09-23T16:47:59.663Z,11.92
2022-09-23T16:53:02.570Z,11.85
2022-09-23T16:58:05.471Z,11.81
2022-09-23T17:03:29.881Z,11.79
2022-09-23T17:08:33.383Z,11.79
2022-09-23T17:13:41.226Z,11.79
2022-09-23T17:18:44.222Z,11.75
2022-09-23T17:23:47.143Z,11.71
2022-09-23T17:28:51.876Z,11.63
2022-09-23T17:33:55.294Z,11.51
2022-09-23T17:38:58.197Z,11.41
2022-09-23T17:44:01.328Z,11.34
2022-09-23T17:49:05.727Z,11.31
2022-09-23T17:54:09.165Z,11.31
2022-09-23T17:59:14.523Z,11.30
2022-09-23T18:04:17.637Z,11.25
2022-09-23T18:09:20.740Z,11.15
2022-09-23T18:14:24.276Z,11.04
2022-09-23T18:19:27.468Z,10.97
2022-09-23T18:24:33.611Z,10.95
2022-09-23T18:29:38.218Z,10.93
2022-09-23T18:34:41.305Z,10.92
2022-09-23T18:39:44.666Z,10.87
2022-09-23T18:44:50.089Z,10.84
2022-09-23T18:50:12.444Z,10.84
2022-09-23T18:55:15.658Z,10.81
2022-09-23T19:00:19.602Z,10.81
2022-09-23T19:05:22.587Z,10.82
2022-09-23T19:10:25.701Z,10.84
2022-09-23T19:15:28.813Z,10.85
2022-09-23T19:20:31.811Z,10.86
2022-09-23T19:25:36.357Z,10.83
2022-09-23T19:30:39.570Z,10.77
2022-09-23T19:35:48.731Z,10.68
2022-09-23T19:40:52.270Z,10.63
2022-09-23T19:45:55.857Z,10.62
2022-09-23T19:50:58.864Z,10.65
2022-09-23T19:56:05.058Z,10.64
2022-09-23T20:01:08.352Z,10.70
2022-09-23T20:06:11.773Z,10.75
2022-09-23T20:11:23.647Z,10.75
2022-09-23T20:16:33.717Z,10.74
2022-09-23T20:21:36.764Z,10.64
2022-09-23T20:26:58.510Z,10.53
2022-09-23T20:32:01.779Z,10.48
2022-09-23T20:37:06.230Z,10.37
2022-09-23T20:42:10.344Z,10.29
2022-09-23T20:47:14.959Z,10.23
2022-09-23T20:52:20.513Z,10.25
2022-09-23T20:57:23.408Z,10.25
2022-09-23T21:02:27.467Z,10.29
2022-09-23T21:07:32.291Z,10.33
2022-09-23T21:12:35.499Z,10.35
2022-09-23T21:17:38.426Z,10.31
2022-09-23T21:22:41.420Z,10.25
2022-09-23T21:27:45.235Z,10.26
2022-09-23T21:32:48.038Z,10.20
2022-09-23T21:37:50.838Z,10.11
2022-09-23T21:42:53.638Z,10.05
2022-09-23T21:47:56.542Z,9.99
2022-09-23T21:53:00.987Z,9.94
2022-09-23T21:58:04.707Z,9.87
2022-09-23T22:03:07.715Z,9.85
2022-09-23T22:08:10.823Z,9.88
2022-09-23T22:13:13.623Z,9.83
2022-09-23T22:18:19.495Z,9.72
2022-09-23T22:23:22.399Z,9.68
2022-09-23T22:28:43.735Z,9.63
2022-09-23T22:33:50.558Z,9.55
2022-09-23T22:38:59.184Z,9.48
2022-09-23T22:44:03.816Z,9.40
2022-09-23T22:49:09.389Z,9.29
2022-09-23T22:54:12.502Z,9.27
2022-09-23T22:59:15.404Z,9.25
2022-09-23T23:04:18.264Z,9.28
2022-09-23T23:09:21.098Z,9.31
2022-09-23T23:14:24.575Z,9.34
2022-09-23T23:19:27.521Z,9.36
2022-09-23T23:24:30.322Z,9.42
2022-09-23T23:29:33.226Z,9.41
2022-09-23T23:34:36.014Z,9.27
2022-09-23T23:39:38.809Z,9.09
2022-09-23T23:44:41.732Z,9.00
2022-09-23T23:49:44.582Z,9.00
2022-09-23T23:54:47.544Z,9.01
2022-09-23T23:59:50.446Z,8.90
